createdAt,value
2016-04-21T13:44:53.232Z,45.3
2016-04-21T13:45:03.373Z,45.1
2016-04-21T13:45:13.373Z,45.5
2016-04-21T13:45:23.373Z,46.7
2016-04-21T13:45:33.357Z,46.9
2016-04-21T13:45:43.357Z,46.3
2016-04-21T13:45:53.360Z,46.3
2016-04-21T13:46:03.345Z,46.6
2016-04-21T13:46:13.345Z,46.9
2016-04-21T13:46:23.329Z,47.4
2016-04-21T13:46:33.329Z,47.3
2016-04-21T13:46:43.329Z,47.2
2016-04-21T13:46:53.332Z,46.6
2016-04-21T13:47:03.332Z,45.9
2016-04-21T13:47:13.316Z,45.9
2016-04-21T13:47:23.316Z,46
2016-04-21T13:47:33.316Z,45.1
2016-04-21T13:47:43.285Z,44.6
2016-04-21T13:47:53.304Z,44.6
2016-04-21T13:48:03.288Z,44
2016-04-21T13:48:13.319Z,43.8
2016-04-21T13:48:23.273Z,43.6
2016-04-21T13:48:33.273Z,43.3
2016-04-21T13:48:43.273Z,42.4
2016-04-21T13:48:53.276Z,41.9
2016-04-21T13:49:03.276Z,42.1
2016-04-21T13:49:13.260Z,42.3
2016-04-21T13:49:23.307Z,42.8
2016-04-21T13:49:33.260Z,43.3
2016-04-21T13:49:43.260Z,44.1
2016-04-21T13:49:53.246Z,43.5
2016-04-21T13:50:03.231Z,43.6
2016-04-21T13:50:13.246Z,43.5
2016-04-21T13:50:23.231Z,43.8
2016-04-21T13:50:33.246Z,42.7
2016-04-21T13:50:43.231Z,43.1
2016-04-21T13:50:53.217Z,43.3
2016-04-21T13:51:03.233Z,43.5
2016-04-21T13:51:13.217Z,43.4
2016-04-21T13:51:23.201Z,43.6
2016-04-21T13:51:33.201Z,44
2016-04-21T13:51:43.530Z,44
2016-04-21T13:51:53.204Z,43.7
2016-04-21T13:52:03.189Z,44.8
2016-04-21T13:52:13.189Z,45.4
2016-04-21T13:52:23.204Z,44.9
2016-04-21T13:52:33.189Z,45.5
2016-04-21T13:52:43.189Z,45.1
2016-04-21T13:52:53.176Z,44.5
2016-04-21T13:53:03.161Z,44.8
2016-04-21T13:53:13.161Z,44.3
2016-04-21T13:53:23.161Z,44.3
2016-04-21T13:53:33.161Z,43.5
2016-04-21T13:53:43.161Z,43.7
2016-04-21T13:53:53.163Z,44.7
2016-04-21T13:54:03.163Z,44.2
2016-04-21T13:54:13.147Z,44.2
2016-04-21T13:54:23.131Z,43.7
2016-04-21T13:54:33.131Z,44
2016-04-21T13:54:43.131Z,44
2016-04-21T13:54:53.134Z,43.7
2016-04-21T13:55:03.134Z,43.4
2016-04-21T13:55:12.978Z,43.4
2016-04-21T13:55:23.119Z,44.1
2016-04-21T13:55:33.103Z,43.7
2016-04-21T13:55:43.103Z,44
2016-04-21T13:55:53.122Z,44.2
2016-04-21T13:56:03.106Z,45.2
2016-04-21T13:56:13.090Z,45
2016-04-21T13:56:23.090Z,45.2
2016-04-21T13:56:33.090Z,44.7
2016-04-21T13:56:43.090Z,44.4
2016-04-21T13:56:53.093Z,43.6
2016-04-21T13:57:03.093Z,44
2016-04-21T13:57:13.078Z,43.6
2016-04-21T13:57:23.078Z,43.9
2016-04-21T13:57:33.078Z,43.8
2016-04-21T13:57:43.062Z,43.8
2016-04-21T13:57:53.064Z,43.4
2016-04-21T13:58:03.064Z,44.3
2016-04-21T13:58:13.064Z,44.4
2016-04-21T13:58:23.049Z,44.5
2016-04-21T13:58:33.049Z,44.7
2016-04-21T13:58:43.080Z,44.7
2016-04-21T13:58:53.036Z,44.3
2016-04-21T13:59:03.020Z,43.9
2016-04-21T13:59:13.036Z,43.8
2016-04-21T13:59:23.036Z,43.2
2016-04-21T13:59:33.036Z,43.3
2016-04-21T13:59:43.036Z,43.8
2016-04-21T13:59:53.022Z,43.8
2016-04-21T14:00:03.022Z,44.6
2016-04-21T14:00:13.007Z,44.6
2016-04-21T14:00:23.007Z,45
2016-04-21T14:00:32.991Z,46
2016-04-21T14:00:42.991Z,47
2016-04-21T14:00:52.995Z,47
2016-04-21T14:01:03.542Z,46.5
2016-04-21T14:01:12.979Z,46.5
2016-04-21T14:01:22.995Z,46.5
2016-04-21T14:01:33.073Z,47.1
2016-04-21T14:01:42.979Z,46.8
2016-04-21T14:01:52.966Z,46.9
2016-04-21T14:02:02.966Z,46
2016-04-21T14:02:12.966Z,45.8
2016-04-21T14:02:22.966Z,46.1
2016-04-21T14:02:32.966Z,47
2016-04-21T14:02:42.950Z,47.5
2016-04-21T14:02:52.953Z,47.8
2016-04-21T14:03:02.953Z,47.6
2016-04-21T14:03:12.953Z,47
2016-04-21T14:03:22.953Z,46
2016-04-21T14:03:32.929Z,46
2016-04-21T14:03:42.929Z,46.3
2016-04-21T14:03:52.932Z,46.6
2016-04-21T14:04:02.932Z,46.8
2016-04-21T14:04:12.932Z,46.6
2016-04-21T14:04:22.166Z,46.9
2016-04-21T14:04:32.932Z,47.3
2016-04-21T14:04:42.916Z,47.9
2016-04-21T14:04:52.918Z,48.2
2016-04-21T14:05:02.902Z,48.3
2016-04-21T14:05:12.902Z,48.1
2016-04-21T14:05:22.902Z,47.2
2016-04-21T14:05:32.902Z,47.1
2016-04-21T14:05:42.902Z,47.6
2016-04-21T14:05:52.889Z,48
2016-04-21T14:06:02.904Z,47.6
2016-04-21T14:06:12.889Z,47.3
2016-04-21T14:06:22.889Z,47.7
2016-04-21T14:06:32.889Z,49
2016-04-21T14:06:42.873Z,50
2016-04-21T14:06:52.861Z,49.7
2016-04-21T14:07:02.845Z,49.7
2016-04-21T14:07:12.861Z,50
2016-04-21T14:07:22.861Z,51.3
2016-04-21T14:07:32.861Z,52.8
2016-04-21T14:07:42.861Z,51.5
2016-04-21T14:07:52.848Z,49.9
2016-04-21T14:08:02.848Z,50.2
2016-04-21T14:08:12.832Z,50
2016-04-21T14:08:22.832Z,50.3
2016-04-21T14:08:32.832Z,51.6
2016-04-21T14:08:42.832Z,50.5
2016-04-21T14:08:52.835Z,50
2016-04-21T14:09:02.835Z,50.1
2016-04-21T14:09:12.820Z,50.2
2016-04-21T14:09:22.820Z,49.9
2016-04-21T14:09:32.804Z,49.9
2016-04-21T14:09:42.820Z,50.7
2016-04-21T14:09:52.807Z,51
2016-04-21T14:10:02.807Z,51.7
2016-04-21T14:10:12.807Z,52.2
2016-04-21T14:10:22.791Z,52.6
2016-04-21T14:10:32.791Z,52.4
2016-04-21T14:10:42.776Z,52.2
2016-04-21T14:10:52.793Z,52.5
2016-04-21T14:11:02.778Z,52.6
2016-04-21T14:11:12.793Z,52.2
2016-04-21T14:11:22.778Z,52.3
2016-04-21T14:11:32.762Z,51.8
2016-04-21T14:11:42.762Z,51.4
2016-04-21T14:11:52.765Z,51.5
2016-04-21T14:12:02.750Z,51.5
2016-04-21T14:12:12.765Z,51.2
2016-04-21T14:12:22.750Z,51.3
2016-04-21T14:12:32.750Z,52.1
2016-04-21T14:12:42.812Z,52.9
2016-04-21T14:12:52.736Z,52.4
2016-04-21T14:13:02.783Z,52.8
2016-04-21T14:13:12.736Z,52.6
2016-04-21T14:13:22.736Z,52.3
2016-04-21T14:13:32.736Z,51.7
2016-04-21T14:13:42.720Z,51.4
2016-04-21T14:13:52.724Z,50.9
2016-04-21T14:14:02.724Z,51.1
2016-04-21T14:14:12.724Z,50.6
2016-04-21T14:14:22.709Z,50.3
2016-04-21T14:14:32.709Z,50
2016-04-21T14:14:42.865Z,49.1
2016-04-21T14:14:52.726Z,48.3
2016-04-21T14:15:02.742Z,48.3
2016-04-21T14:15:12.695Z,47.9
2016-04-21T14:15:22.773Z,48
2016-04-21T14:15:32.695Z,48.5
2016-04-21T14:15:42.679Z,48.1
2016-04-21T14:15:52.681Z,48.1
2016-04-21T14:16:02.681Z,48.4
2016-04-21T14:16:12.666Z,49.2
2016-04-21T14:16:22.666Z,51.4
2016-04-21T14:16:32.650Z,51.5
2016-04-21T14:16:42.650Z,51.1
2016-04-21T14:16:52.653Z,49.6
2016-04-21T14:17:02.638Z,48.1
2016-04-21T14:17:12.653Z,47.4
2016-04-21T14:17:22.638Z,46.7
2016-04-21T14:17:32.669Z,45.7
2016-04-21T14:17:42.638Z,46.2
2016-04-21T14:17:52.641Z,47.5
2016-04-21T14:18:02.641Z,48.3
2016-04-21T14:18:12.625Z,49.1
2016-04-21T14:18:22.625Z,49.2
2016-04-21T14:18:32.625Z,48.9
2016-04-21T14:18:42.609Z,48.9
2016-04-21T14:18:52.628Z,48.9
2016-04-21T14:19:02.612Z,48.8
2016-04-21T14:19:12.612Z,48.7
2016-04-21T14:19:22.612Z,48.1
2016-04-21T14:19:32.597Z,47.9
2016-04-21T14:19:42.597Z,48
2016-04-21T14:19:52.583Z,48.1
2016-04-21T14:20:02.583Z,48.3
2016-04-21T14:20:12.427Z,49.8
2016-04-21T14:20:22.583Z,51.5
2016-04-21T14:20:32.567Z,51.3
2016-04-21T14:20:42.567Z,51.6
2016-04-21T14:20:52.571Z,51.8
2016-04-21T14:21:02.571Z,52
2016-04-21T14:21:12.571Z,52
2016-04-21T14:21:22.571Z,51.3
2016-04-21T14:21:32.556Z,50.3
2016-04-21T14:21:42.556Z,49.9
2016-04-21T14:21:52.542Z,49.7
2016-04-21T14:22:02.573Z,50
2016-04-21T14:22:12.558Z,49.9
2016-04-21T14:22:22.558Z,49.6
2016-04-21T14:22:32.573Z,49.9
2016-04-21T14:22:42.536Z,50.3
2016-04-21T14:22:52.538Z,50.9
2016-04-21T14:23:02.538Z,51.5
2016-04-21T14:23:12.538Z,52.7
2016-04-21T14:23:22.523Z,53.2
2016-04-21T14:23:32.523Z,53.7
2016-04-21T14:23:42.538Z,52.9
2016-04-21T14:23:52.526Z,52.5
2016-04-21T14:24:02.510Z,53.3
2016-04-21T14:24:12.510Z,53.3
2016-04-21T14:24:22.526Z,53.3
2016-04-21T14:24:32.495Z,52.9
2016-04-21T14:24:42.495Z,53.3
2016-04-21T14:24:52.513Z,53.2
2016-04-21T14:25:02.482Z,52.3
2016-04-21T14:25:12.513Z,52.2
2016-04-21T14:25:22.466Z,52.3
2016-04-21T14:25:32.498Z,51.6
2016-04-21T14:25:42.482Z,51.1
2016-04-21T14:25:52.468Z,50.9
2016-04-21T14:26:02.468Z,51
2016-04-21T14:26:12.453Z,51.6
2016-04-21T14:26:22.453Z,51.7
2016-04-21T14:26:32.453Z,51.8
2016-04-21T14:26:42.437Z,51.8
2016-04-21T14:26:52.472Z,51.7
2016-04-21T14:27:02.441Z,51.3
2016-04-21T14:27:12.457Z,51.3
2016-04-21T14:27:22.457Z,51
2016-04-21T14:27:32.425Z,51
2016-04-21T14:27:42.425Z,51.5
2016-04-21T14:27:52.427Z,52
2016-04-21T14:28:02.412Z,52.1
2016-04-21T14:28:12.427Z,52.2
2016-04-21T14:28:22.412Z,52.4
2016-04-21T14:28:32.412Z,52.6
2016-04-21T14:28:42.412Z,53.2
2016-04-21T14:28:52.399Z,53.7
2016-04-21T14:29:02.415Z,53.3
2016-04-21T14:29:12.415Z,55
2016-04-21T14:29:22.399Z,55.7
2016-04-21T14:29:32.399Z,55.3
2016-04-21T14:29:42.384Z,55.8
2016-04-21T14:29:52.387Z,55.4
2016-04-21T14:30:02.387Z,55
2016-04-21T14:30:12.371Z,54.8
2016-04-21T14:30:22.371Z,54.7
2016-04-21T14:30:32.371Z,55.4
2016-04-21T14:30:42.355Z,55.8
2016-04-21T14:30:52.373Z,55.8
2016-04-21T14:31:02.357Z,55.7
2016-04-21T14:31:12.342Z,55.9
2016-04-21T14:31:22.342Z,55.4
2016-04-21T14:31:32.342Z,55.2
2016-04-21T14:31:42.342Z,55
2016-04-21T14:31:52.345Z,54.5
2016-04-21T14:32:02.345Z,53.3
2016-04-21T14:32:12.329Z,52.6
2016-04-21T14:32:22.345Z,52.4
2016-04-21T14:32:32.329Z,52.7
2016-04-21T14:32:42.313Z,52.8
2016-04-21T14:32:52.316Z,52.7
2016-04-21T14:33:02.316Z,53.3
2016-04-21T14:33:12.316Z,53.3
2016-04-21T14:33:22.316Z,52.7
2016-04-21T14:33:32.316Z,51.7
2016-04-21T14:33:42.301Z,51.4
2016-04-21T14:33:52.303Z,51.6
2016-04-21T14:34:02.318Z,52.7
2016-04-21T14:34:12.303Z,53.2
2016-04-21T14:34:22.287Z,53.1
2016-04-21T14:34:32.287Z,53.1
2016-04-21T14:34:42.272Z,53.5
2016-04-21T14:34:52.275Z,53.6
2016-04-21T14:35:02.275Z,54
2016-04-21T14:35:12.275Z,54.5
2016-04-21T14:35:22.275Z,54.5
2016-04-21T14:35:32.259Z,54.1
2016-04-21T14:35:42.243Z,54.3
2016-04-21T14:35:52.261Z,54.4
2016-04-21T14:36:02.245Z,54.3
2016-04-21T14:36:12.261Z,54.1
2016-04-21T14:36:22.245Z,54.5
2016-04-21T14:36:32.245Z,54.6
2016-04-21T14:36:42.230Z,54.5
2016-04-21T14:36:52.233Z,54.7
2016-04-21T14:37:02.217Z,55.6
2016-04-21T14:37:12.233Z,55.2
2016-04-21T14:37:22.217Z,55
2016-04-21T14:37:32.233Z,55.1
2016-04-21T14:37:42.217Z,54.9
2016-04-21T14:37:52.220Z,55.5
2016-04-21T14:38:02.220Z,55.5
2016-04-21T14:38:12.204Z,55.5
2016-04-21T14:38:22.204Z,55.5
2016-04-21T14:38:32.204Z,55.2
2016-04-21T14:38:42.220Z,55.3
2016-04-21T14:38:52.192Z,54.3
2016-04-21T14:39:02.192Z,54.3
2016-04-21T14:39:12.176Z,54.2
2016-04-21T14:39:22.176Z,54.3
2016-04-21T14:39:32.176Z,55
2016-04-21T14:39:42.176Z,55.2
2016-04-21T14:39:52.178Z,55.2
2016-04-21T14:40:02.178Z,56
2016-04-21T14:40:12.163Z,55.3
2016-04-21T14:40:22.225Z,55.3
2016-04-21T14:40:32.163Z,55
2016-04-21T14:40:42.147Z,53.9
2016-04-21T14:40:52.149Z,54.2
2016-04-21T14:41:02.149Z,53.8
2016-04-21T14:41:12.149Z,53.5
2016-04-21T14:41:22.149Z,52.1
2016-04-21T14:41:32.133Z,51.5
2016-04-21T14:41:42.133Z,51.5
2016-04-21T14:41:52.137Z,52.4
2016-04-21T14:42:02.122Z,52.6
2016-04-21T14:42:12.122Z,52.9
2016-04-21T14:42:22.122Z,52.4
2016-04-21T14:42:31.950Z,51.8
2016-04-21T14:42:42.106Z,52.1
2016-04-21T14:42:52.108Z,52.2
2016-04-21T14:43:02.108Z,52.1
2016-04-21T14:43:12.092Z,52.1
2016-04-21T14:43:22.092Z,52.8
2016-04-21T14:43:32.092Z,52.9
2016-04-21T14:43:42.092Z,53.7
2016-04-21T14:43:52.080Z,54.7
2016-04-21T14:44:02.080Z,55.6
2016-04-21T14:44:12.080Z,55.8
2016-04-21T14:44:22.080Z,55.6
2016-04-21T14:44:32.080Z,55.6
2016-04-21T14:44:42.064Z,55.4
2016-04-21T14:44:52.067Z,55.2
2016-04-21T14:45:02.052Z,55.1
2016-04-21T14:45:12.052Z,55.2
2016-04-21T14:45:22.052Z,55.4
2016-04-21T14:45:32.052Z,55.5
2016-04-21T14:45:42.036Z,55.4
2016-04-21T14:45:52.054Z,54.9
2016-04-21T14:46:02.038Z,54.4
2016-04-21T14:46:12.038Z,54.6
2016-04-21T14:46:22.038Z,55.5
2016-04-21T14:46:32.022Z,55.3
2016-04-21T14:46:42.054Z,54.8
2016-04-21T14:46:52.275Z,54.8
2016-04-21T14:47:02.244Z,55.1
2016-04-21T14:47:12.010Z,55.8
2016-04-21T14:47:22.010Z,56.4
2016-04-21T14:47:32.010Z,56.6
2016-04-21T14:47:42.010Z,56.7
2016-04-21T14:47:51.997Z,57.1
2016-04-21T14:48:02.013Z,57
2016-04-21T14:48:11.981Z,56.5
2016-04-21T14:48:21.981Z,56.2
2016-04-21T14:48:31.981Z,55.8
2016-04-21T14:48:41.981Z,55.4
2016-04-21T14:48:51.969Z,55.2
2016-04-21T14:49:01.969Z,55.4
2016-04-21T14:49:11.969Z,54.5
2016-04-21T14:49:21.969Z,54.4
2016-04-21T14:49:31.984Z,55
2016-04-21T14:49:41.969Z,55.8
2016-04-21T14:49:51.971Z,57.3
2016-04-21T14:50:01.955Z,57.7
2016-04-21T14:50:11.940Z,57
2016-04-21T14:50:21.940Z,56.5
2016-04-21T14:50:31.940Z,56.4
2016-04-21T14:50:41.924Z,57
2016-04-21T14:50:51.943Z,57.8
2016-04-21T14:51:01.927Z,57.9
2016-04-21T14:51:11.927Z,57.6
2016-04-21T14:51:21.927Z,58.3
2016-04-21T14:51:31.911Z,59.1
2016-04-21T14:51:41.911Z,59
2016-04-21T14:51:51.914Z,59.1
2016-04-21T14:52:01.914Z,58.8
2016-04-21T14:52:11.914Z,58.9
2016-04-21T14:52:21.899Z,58.7
2016-04-21T14:52:31.899Z,59.2
2016-04-21T14:52:41.883Z,58.2
2016-04-21T14:52:51.901Z,57.7
2016-04-21T14:53:01.885Z,57.8
2016-04-21T14:53:11.885Z,57.8
2016-04-21T14:53:21.885Z,57.5
2016-04-21T14:53:31.869Z,57.2
2016-04-21T14:53:41.869Z,56.7
2016-04-21T14:53:51.871Z,56.6
2016-04-21T14:54:01.856Z,56.2
2016-04-21T14:54:11.856Z,56.2
2016-04-21T14:54:21.856Z,56.4
2016-04-21T14:54:31.856Z,55.5
2016-04-21T14:54:41.856Z,55.3
2016-04-21T14:54:51.843Z,55.1
2016-04-21T14:55:01.828Z,55.4
2016-04-21T14:55:11.874Z,55.6
2016-04-21T14:55:21.859Z,55.9
2016-04-21T14:55:31.828Z,56.3
2016-04-21T14:55:41.828Z,56.6
2016-04-21T14:55:51.831Z,56.3
2016-04-21T14:56:01.815Z,55.7
2016-04-21T14:56:11.815Z,55.3
2016-04-21T14:56:21.799Z,55.3
2016-04-21T14:56:31.815Z,55
2016-04-21T14:56:41.799Z,55
2016-04-21T14:56:51.802Z,55.2
2016-04-21T14:57:01.802Z,55.6
2016-04-21T14:57:11.787Z,55.8
2016-04-21T14:57:21.802Z,55.8
2016-04-21T14:57:31.787Z,56.4
2016-04-21T14:57:41.771Z,56.6
2016-04-21T14:57:51.790Z,57.1
2016-04-21T14:58:01.774Z,57
2016-04-21T14:58:11.774Z,57.3
2016-04-21T14:58:21.774Z,57.9
2016-04-21T14:58:31.774Z,57.9
2016-04-21T14:58:41.774Z,58.2
2016-04-21T14:58:51.761Z,58.6
2016-04-21T14:59:01.746Z,59.1
2016-04-21T14:59:11.746Z,59.7
2016-04-21T14:59:21.746Z,59.4
2016-04-21T14:59:31.730Z,59.2
2016-04-21T14:59:41.746Z,58.5
2016-04-21T14:59:51.748Z,58.1
2016-04-21T15:00:01.732Z,57.8
2016-04-21T15:00:11.748Z,57.6
2016-04-21T15:00:21.732Z,57.8
2016-04-21T15:00:31.732Z,57.8
2016-04-21T15:00:41.732Z,58.3
2016-04-21T15:00:51.719Z,58.2
2016-04-21T15:01:01.547Z,59.5
2016-04-21T15:01:11.703Z,59.7
2016-04-21T15:01:21.703Z,59.5
2016-04-21T15:01:31.703Z,59.2
2016-04-21T15:01:41.687Z,58.4
2016-04-21T15:01:51.707Z,57.4
2016-04-21T15:02:01.691Z,56.5
2016-04-21T15:02:11.691Z,55.7
2016-04-21T15:02:21.676Z,56.1
2016-04-21T15:02:31.676Z,56.3
2016-04-21T15:02:41.676Z,56.7
2016-04-21T15:02:51.678Z,57
2016-04-21T15:03:01.662Z,57
2016-04-21T15:03:11.662Z,56.4
2016-04-21T15:03:21.662Z,55.8
2016-04-21T15:03:31.662Z,55.4
2016-04-21T15:03:41.646Z,55.2
2016-04-21T15:03:51.665Z,54.7
2016-04-21T15:04:01.634Z,55.6
2016-04-21T15:04:11.649Z,54.8
2016-04-21T15:04:21.634Z,54.4
2016-04-21T15:04:31.634Z,53.5
2016-04-21T15:04:41.634Z,54.3
2016-04-21T15:04:51.637Z,55.2
2016-04-21T15:05:01.621Z,55.4
2016-04-21T15:05:11.621Z,55.7
2016-04-21T15:05:21.621Z,57
2016-04-21T15:05:31.621Z,57.7
2016-04-21T15:05:41.606Z,57.4
2016-04-21T15:05:51.623Z,57
2016-04-21T15:06:01.592Z,57
2016-04-21T15:06:11.623Z,57
2016-04-21T15:06:21.608Z,58
2016-04-21T15:06:31.639Z,58.2
2016-04-21T15:06:41.592Z,57.9
2016-04-21T15:06:51.595Z,58.4
2016-04-21T15:07:01.579Z,57.7
2016-04-21T15:07:11.579Z,57.8
2016-04-21T15:07:21.579Z,57.9
2016-04-21T15:07:31.579Z,57.3
2016-04-21T15:07:41.548Z,58.3
2016-04-21T15:07:51.550Z,58.8
2016-04-21T15:08:01.566Z,59.5
2016-04-21T15:08:11.550Z,59.6
2016-04-21T15:08:21.550Z,59.3
2016-04-21T15:08:31.550Z,59.2
2016-04-21T15:08:41.550Z,59.1
2016-04-21T15:08:51.522Z,58.4
2016-04-21T15:09:01.522Z,58.5
2016-04-21T15:09:11.522Z,58.1
2016-04-21T15:09:21.709Z,58.8
2016-04-21T15:09:31.537Z,59.1
2016-04-21T15:09:41.522Z,58.7
2016-04-21T15:09:51.540Z,59.3
2016-04-21T15:10:01.525Z,59.2
2016-04-21T15:10:11.509Z,59.3
2016-04-21T15:10:21.540Z,58.4
2016-04-21T15:10:31.509Z,57.5
2016-04-21T15:10:41.494Z,57
2016-04-21T15:10:51.497Z,56.8
2016-04-21T15:11:01.497Z,56.4
2016-04-21T15:11:11.497Z,56.6
2016-04-21T15:11:21.497Z,57.3
2016-04-21T15:11:31.481Z,58
2016-04-21T15:11:41.481Z,57.8
2016-04-21T15:11:51.467Z,57.7
2016-04-21T15:12:01.545Z,57.1
2016-04-21T15:12:11.467Z,56.8
2016-04-21T15:12:21.452Z,56.9
2016-04-21T15:12:31.452Z,57.2
2016-04-21T15:12:41.452Z,57.1
2016-04-21T15:12:51.455Z,56.3
2016-04-21T15:13:01.470Z,56.4
2016-04-21T15:13:11.439Z,57.2
2016-04-21T15:13:21.439Z,58
2016-04-21T15:13:31.423Z,58
2016-04-21T15:13:41.439Z,57.9
2016-04-21T15:13:51.426Z,59.3
2016-04-21T15:14:01.426Z,59.7
2016-04-21T15:14:11.411Z,59.5
2016-04-21T15:14:21.411Z,59.3
2016-04-21T15:14:31.411Z,59.3
2016-04-21T15:14:41.395Z,59.2
2016-04-21T15:14:51.413Z,59.7
2016-04-21T15:15:01.397Z,59.2
2016-04-21T15:15:11.413Z,58.5
2016-04-21T15:15:21.397Z,57.7
2016-04-21T15:15:31.382Z,57.7
2016-04-21T15:15:41.366Z,59.3
2016-04-21T15:15:51.385Z,60.6
2016-04-21T15:16:01.369Z,61
2016-04-21T15:16:11.369Z,61
2016-04-21T15:16:21.369Z,60.1
2016-04-21T15:16:31.385Z,59.3
2016-04-21T15:16:41.369Z,58.5
2016-04-21T15:16:51.355Z,58.2
2016-04-21T15:17:01.355Z,58.2
2016-04-21T15:17:11.355Z,57.8
2016-04-21T15:17:21.355Z,57.9
2016-04-21T15:17:31.340Z,56.8
2016-04-21T15:17:41.340Z,55.9
2016-04-21T15:17:51.327Z,55.3
2016-04-21T15:18:01.343Z,55.6
2016-04-21T15:18:11.343Z,55.9
2016-04-21T15:18:21.343Z,56.1
2016-04-21T15:18:31.327Z,56.7
2016-04-21T15:18:41.311Z,58
2016-04-21T15:18:51.314Z,59.2
2016-04-21T15:19:01.330Z,59.7
2016-04-21T15:19:11.299Z,59.5
2016-04-21T15:19:21.299Z,60.2
2016-04-21T15:19:31.299Z,61.4
2016-04-21T15:19:41.299Z,62
2016-04-21T15:19:51.302Z,62.3
2016-04-21T15:20:01.286Z,61.8
2016-04-21T15:20:11.286Z,62
2016-04-21T15:20:21.271Z,61.9
2016-04-21T15:20:31.271Z,61.7
2016-04-21T15:20:41.271Z,62.3
2016-04-21T15:20:51.273Z,62.3
2016-04-21T15:21:01.257Z,63.1
2016-04-21T15:21:11.257Z,61.8
2016-04-21T15:21:21.257Z,59.8
2016-04-21T15:21:31.257Z,58.6
2016-04-21T15:21:41.257Z,58.1
2016-04-21T15:21:51.260Z,58.2
2016-04-21T15:22:01.244Z,58.2
2016-04-21T15:22:11.229Z,58.5
2016-04-21T15:22:21.229Z,57.7
2016-04-21T15:22:31.229Z,57.8
2016-04-21T15:22:41.229Z,58
2016-04-21T15:22:51.232Z,58.4
2016-04-21T15:23:01.232Z,58.3
2016-04-21T15:23:11.216Z,58.2
2016-04-21T15:23:21.216Z,59.1
2016-04-21T15:23:31.200Z,58.8
2016-04-21T15:23:41.200Z,58.3
2016-04-21T15:23:51.249Z,58.4
2016-04-21T15:24:01.187Z,57.9
2016-04-21T15:24:11.202Z,58.2
2016-04-21T15:24:21.202Z,57.9
2016-04-21T15:24:31.187Z,58.6
2016-04-21T15:24:41.187Z,58.8
2016-04-21T15:24:51.174Z,59.1
2016-04-21T15:25:01.174Z,59.2
2016-04-21T15:25:11.174Z,59.6
2016-04-21T15:25:21.159Z,59.5
2016-04-21T15:25:31.190Z,59.5
2016-04-21T15:25:41.174Z,59.8
2016-04-21T15:25:51.162Z,59.6
2016-04-21T15:26:01.162Z,60
2016-04-21T15:26:11.146Z,59.8
2016-04-21T15:26:21.146Z,59.6
2016-04-21T15:26:31.146Z,58.8
2016-04-21T15:26:41.130Z,57.9
2016-04-21T15:26:51.149Z,57.1
2016-04-21T15:27:01.133Z,55.9
2016-04-21T15:27:11.133Z,55.4
2016-04-21T15:27:21.133Z,55.1
2016-04-21T15:27:31.118Z,55.2
2016-04-21T15:27:41.118Z,55.9
2016-04-21T15:27:51.104Z,56.3
2016-04-21T15:28:01.120Z,57.6
2016-04-21T15:28:11.104Z,57.9
2016-04-21T15:28:21.104Z,58.6
2016-04-21T15:28:31.088Z,58.9
2016-04-21T15:28:41.088Z,58
2016-04-21T15:28:51.107Z,57.7
2016-04-21T15:29:01.091Z,57.1
2016-04-21T15:29:11.091Z,57.7
2016-04-21T15:29:21.076Z,57.7
2016-04-21T15:29:31.076Z,57.4
2016-04-21T15:29:41.060Z,56.8
2016-04-21T15:29:51.063Z,57.1
2016-04-21T15:30:01.063Z,57.1
2016-04-21T15:30:11.063Z,56.9
2016-04-21T15:30:23.751Z,56.8
2016-04-21T15:30:31.063Z,57
2016-04-21T15:30:41.048Z,57.3
2016-04-21T15:30:51.051Z,57.2
2016-04-21T15:31:01.035Z,57.2
2016-04-21T15:31:11.035Z,56.8
2016-04-21T15:31:21.035Z,56.8
2016-04-21T15:31:31.035Z,56.9
2016-04-21T15:31:41.019Z,56.9
2016-04-21T15:31:51.037Z,57
2016-04-21T15:32:01.021Z,57.3
2016-04-21T15:32:11.006Z,58
2016-04-21T15:32:21.037Z,58.1
2016-04-21T15:32:31.334Z,58.1
2016-04-21T15:32:41.178Z,58.5
2016-04-21T15:32:50.992Z,58
2016-04-21T15:33:00.992Z,57.9
2016-04-21T15:33:10.992Z,57.9
2016-04-21T15:33:20.976Z,57.8
2016-04-21T15:33:30.992Z,58.2
2016-04-21T15:33:40.992Z,57.9
2016-04-21T15:33:50.980Z,57.7
2016-04-21T15:34:00.980Z,57.8
2016-04-21T15:34:10.949Z,57.8
2016-04-21T15:34:20.949Z,58.6
2016-04-21T15:34:30.965Z,59
2016-04-21T15:34:40.949Z,59
2016-04-21T15:34:50.967Z,58.8
2016-04-21T15:35:00.936Z,58.3
2016-04-21T15:35:10.936Z,57.8
2016-04-21T15:35:20.951Z,57.9
2016-04-21T15:35:30.951Z,58.3
2016-04-21T15:35:40.951Z,58.1
2016-04-21T15:35:51.017Z,58.1
2016-04-21T15:36:01.079Z,58.6
2016-04-21T15:36:11.048Z,59
2016-04-21T15:36:21.048Z,59.6
2016-04-21T15:36:31.064Z,59.8
2016-04-21T15:36:41.032Z,59.3
2016-04-21T15:36:51.035Z,59.1
2016-04-21T15:37:01.113Z,59.3
2016-04-21T15:37:11.192Z,59
2016-04-21T15:37:21.035Z,58.7
2016-04-21T15:37:30.973Z,58.3
2016-04-21T15:37:41.035Z,58
2016-04-21T15:37:50.975Z,58.2
2016-04-21T15:38:01.022Z,58
2016-04-21T15:38:11.037Z,58.4
2016-04-21T15:38:20.897Z,58.8
2016-04-21T15:38:30.881Z,59
2016-04-21T15:38:40.865Z,58.9
2016-04-21T15:38:50.865Z,59.3
2016-04-21T15:39:00.868Z,59.3
2016-04-21T15:39:10.868Z,59
2016-04-21T15:39:21.009Z,59.7
2016-04-21T15:39:30.978Z,59.1
2016-04-21T15:39:40.978Z,59.9
2016-04-21T15:39:50.900Z,59.8
2016-04-21T15:40:00.981Z,59.3
2016-04-21T15:40:10.965Z,59.4
2016-04-21T15:40:21.903Z,58.5
2016-04-21T15:40:30.934Z,58.8
2016-04-21T15:40:40.840Z,59.1
2016-04-21T15:40:50.809Z,59.7
2016-04-21T15:41:00.812Z,60.5
2016-04-21T15:41:10.796Z,60.4
2016-04-21T15:41:20.812Z,59.7
2016-04-21T15:41:30.812Z,59.1
2016-04-21T15:41:40.812Z,59.3
2016-04-21T15:41:50.796Z,59.3
2016-04-21T15:42:00.798Z,58.4
2016-04-21T15:42:10.783Z,58.1
2016-04-21T15:42:21.001Z,57.5
2016-04-21T15:42:30.861Z,58
2016-04-21T15:42:40.767Z,58.3
2016-04-21T15:42:50.767Z,57.8
2016-04-21T15:43:00.770Z,57.7
2016-04-21T15:43:10.754Z,57.9
2016-04-21T15:43:20.754Z,57.5
2016-04-21T15:43:30.754Z,57.8
2016-04-21T15:43:40.754Z,57.8
2016-04-21T15:43:50.754Z,57.7
2016-04-21T15:44:00.803Z,58.4
2016-04-21T15:44:10.881Z,58.9
2016-04-21T15:44:20.913Z,59.1
2016-04-21T15:44:30.881Z,59.6
2016-04-21T15:44:40.850Z,59.9
2016-04-21T15:44:50.850Z,59.8
2016-04-21T15:45:00.869Z,59.9
2016-04-21T15:45:10.869Z,59.9
2016-04-21T15:45:21.291Z,61.9
2016-04-21T15:45:30.916Z,62.8
2016-04-21T15:45:40.822Z,63.1
2016-04-21T15:45:50.775Z,62.2
2016-04-21T15:46:00.716Z,61.7
2016-04-21T15:46:10.716Z,61.4
2016-04-21T15:46:20.684Z,61.4
2016-04-21T15:46:30.684Z,61.5
2016-04-21T15:46:40.669Z,61.1
2016-04-21T15:46:50.684Z,61.3
2016-04-21T15:47:00.671Z,61.2
2016-04-21T15:47:10.686Z,61.1
2016-04-21T15:47:20.671Z,60.4
2016-04-21T15:47:30.655Z,60.1
2016-04-21T15:47:40.655Z,60.6
2016-04-21T15:47:50.655Z,60.9
2016-04-21T15:48:00.642Z,61.2
2016-04-21T15:48:10.658Z,61.7
2016-04-21T15:48:20.642Z,61.8
2016-04-21T15:48:30.642Z,62.2
2016-04-21T15:48:40.642Z,61.7
2016-04-21T15:48:50.627Z,61.8
2016-04-21T15:49:00.630Z,61.8
2016-04-21T15:49:10.630Z,61.4
2016-04-21T15:49:20.630Z,61.4
2016-04-21T15:49:30.614Z,60.5
2016-04-21T15:49:40.614Z,60.3
2016-04-21T15:49:50.599Z,60.6
2016-04-21T15:50:00.616Z,61.4
2016-04-21T15:50:10.601Z,61
2016-04-21T15:50:20.601Z,61.8
2016-04-21T15:50:31.804Z,61.7
2016-04-21T15:50:40.585Z,61.8
2016-04-21T15:50:50.585Z,61.7
2016-04-21T15:51:00.572Z,62
2016-04-21T15:51:10.588Z,61.3
2016-04-21T15:51:20.572Z,61.1
2016-04-21T15:51:30.572Z,61.1
2016-04-21T15:51:40.572Z,61.5
2016-04-21T15:51:50.572Z,61.5
2016-04-21T15:52:00.560Z,61.3
2016-04-21T15:52:10.560Z,60.7
2016-04-21T15:52:20.544Z,60.5
2016-04-21T15:52:30.544Z,60.3
2016-04-21T15:52:40.544Z,60.7
2016-04-21T15:52:50.560Z,61.1
2016-04-21T15:53:00.531Z,61.4
2016-04-21T15:53:10.547Z,61.8
2016-04-21T15:53:20.531Z,61.9
2016-04-21T15:53:30.531Z,61.9
2016-04-21T15:53:40.516Z,61.7
2016-04-21T15:53:50.531Z,61.4
2016-04-21T15:54:00.518Z,61.1
2016-04-21T15:54:10.518Z,60.7
2016-04-21T15:54:20.518Z,60.3
2016-04-21T15:54:30.502Z,60.6
2016-04-21T15:54:40.502Z,60.7
2016-04-21T15:54:50.502Z,60.5
2016-04-21T15:55:00.474Z,60.9
2016-04-21T15:55:10.490Z,60.5
2016-04-21T15:55:20.490Z,60.6
2016-04-21T15:55:32.505Z,60.3
2016-04-21T15:55:40.490Z,60.6
2016-04-21T15:55:50.474Z,61.1
2016-04-21T15:56:00.477Z,61.7
2016-04-21T15:56:10.461Z,61.7
2016-04-21T15:56:20.461Z,61.7
2016-04-21T15:56:30.461Z,61.7
2016-04-21T15:56:40.461Z,61.4
2016-04-21T15:56:50.446Z,60.2
2016-04-21T15:57:00.433Z,59.6
2016-04-21T15:57:10.433Z,59.9
2016-04-21T15:57:20.433Z,60.1
2016-04-21T15:57:30.449Z,59.9
2016-04-21T15:57:40.433Z,60.4
2016-04-21T15:57:50.449Z,60.4
2016-04-21T15:58:00.435Z,60.4
2016-04-21T15:58:10.435Z,60.6
2016-04-21T15:58:20.419Z,60.4
2016-04-21T15:58:30.419Z,60.8
2016-04-21T15:58:40.404Z,61.3
2016-04-21T15:58:50.404Z,61.7